Time;durP1;ratioP1;P1;durP2;ratioP2;P2;SDS_P1;SDS_P2;PMS_P1;PMS_P2;Temp;Humidity;BMP_temperature;BMP_pressure;BME280_temperature;BME280_humidity;BME280_pressure;Samples;Min_cycle;Max_cycle;Signal;HPM_P1;HPM_P2
2022/03/15 00:00:13;;;;;;;5.45;1.58;;;16.30;43.10;;;;;;5117213;27;20031;-70
2022/03/15 00:02:39;;;;;;;3.35;1.30;;;16.30;43.10;;;;;;5116889;27;20123;-70
2022/03/15 00:05:05;;;;;;;2.67;1.60;;;16.30;43.10;;;;;;5116876;27;20051;-70
2022/03/15 00:07:31;;;;;;;2.25;1.80;;;16.30;43.10;;;;;;5116819;27;20043;-72
2022/03/15 00:09:56;;;;;;;3.47;1.50;;;16.30;43.10;;;;;;5116984;27;20062;-70
2022/03/15 00:12:28;;;;;;;3.78;1.77;;;16.30;43.10;;;;;;5116677;27;20043;-72
2022/03/15 00:14:55;;;;;;;4.32;1.70;;;16.30;43.10;;;;;;5116860;27;20118;-72
2022/03/15 00:17:21;;;;;;;2.80;2.00;;;16.30;43.10;;;;;;5135469;27;20466;-70
2022/03/15 00:19:47;;;;;;;3.55;1.42;;;16.20;43.10;;;;;;5117121;27;20390;-70
2022/03/15 00:22:14;;;;;;;4.43;1.88;;;16.20;43.00;;;;;;5135348;27;20039;-72
2022/03/15 00:24:41;;;;;;;2.30;1.33;;;16.20;43.00;;;;;;5135101;27;20039;-70
2022/03/15 00:27:06;;;;;;;3.45;1.35;;;16.20;43.10;;;;;;5116814;27;20049;-72
2022/03/15 00:29:35;;;;;;;3.22;1.60;;;16.20;43.00;;;;;;5116906;27;20409;-72
2022/03/15 00:32:01;;;;;;;3.47;2.17;;;16.20;43.10;;;;;;5116211;27;20047;-72
2022/03/15 00:34:27;;;;;;;1.92;1.23;;;16.20;43.10;;;;;;5134779;27;20047;-71
2022/03/15 00:36:52;;;;;;;3.08;1.40;;;16.20;43.10;;;;;;5135094;27;20167;-70
2022/03/15 00:39:18;;;;;;;3.90;1.75;;;16.10;43.10;;;;;;5134682;27;20032;-72
2022/03/15 00:41:44;;;;;;;2.22;1.20;;;16.10;43.10;;;;;;5134737;27;20067;-72
2022/03/15 00:44:13;;;;;;;2.70;1.23;;;16.10;43.10;;;;;;5134837;27;20542;-70
2022/03/15 00:46:38;;;;;;;2.42;1.15;;;16.10;43.10;;;;;;5116232;27;20043;-72
2022/03/15 00:49:04;;;;;;;3.20;1.23;;;16.10;43.10;;;;;;5134050;27;20035;-73
2022/03/15 00:51:34;;;;;;;2.78;1.40;;;16.10;43.10;;;;;;5115987;27;20047;-71
2022/03/15 00:54:00;;;;;;;2.38;1.42;;;16.10;43.10;;;;;;5134521;27;20045;-72
2022/03/15 00:56:26;;;;;;;2.15;1.40;;;16.00;43.00;;;;;;5116088;27;20039;-72
2022/03/15 00:58:51;;;;;;;2.30;1.35;;;16.00;43.00;;;;;;5115877;27;20046;-72
2022/03/15 01:01:17;;;;;;;2.22;1.20;;;16.10;43.10;;;;;;5134590;27;20122;-70
2022/03/15 01:03:43;;;;;;;2.63;1.10;;;16.00;43.00;;;;;;5134222;27;20124;-70
2022/03/15 01:06:09;;;;;;;2.95;1.40;;;16.00;43.10;;;;;;5116168;27;20387;-72
2022/03/15 01:08:35;;;;;;;2.60;1.13;;;16.00;43.00;;;;;;5116091;27;20391;-72
2022/03/15 01:11:02;;;;;;;3.47;1.27;;;16.00;43.00;;;;;;5115771;27;20043;-72
2022/03/15 01:13:27;;;;;;;2.53;1.08;;;16.00;43.00;;;;;;5133918;27;20047;-72
2022/03/15 01:15:53;;;;;;;2.75;1.23;;;16.00;43.00;;;;;;5114726;27;20394;-70
2022/03/15 01:18:22;;;;;;;2.15;1.20;;;16.00;43.00;;;;;;5115551;27;20506;-72
2022/03/15 01:20:51;;;;;;;2.90;1.25;;;15.90;42.90;;;;;;5115141;27;20067;-72
2022/03/15 01:23:21;;;;;;;1.50;1.02;;;15.90;43.00;;;;;;5115778;27;20043;-70
2022/03/15 01:25:47;;;;;;;2.97;1.38;;;15.90;43.00;;;;;;5133741;27;20104;-73
2022/03/15 01:28:15;;;;;;;1.63;1.13;;;15.90;42.90;;;;;;5133818;27;20414;-71
2022/03/15 01:30:43;;;;;;;3.42;1.27;;;15.90;43.00;;;;;;5115283;27;20092;-70
2022/03/15 01:33:09;;;;;;;3.47;1.35;;;15.90;43.70;;;;;;5133292;27;20478;-72
2022/03/15 01:35:34;;;;;;;2.78;1.30;;;15.80;42.90;;;;;;5133642;27;20054;-70
2022/03/15 01:38:00;;;;;;;2.78;1.00;;;15.80;43.00;;;;;;5133836;27;20035;-72
2022/03/15 01:40:26;;;;;;;2.13;1.25;;;15.80;43.00;;;;;;5133505;27;20580;-73
2022/03/15 01:42:52;;;;;;;3.35;1.10;;;15.80;43.00;;;;;;5115074;27;20074;-72
2022/03/15 01:45:17;;;;;;;2.67;1.25;;;15.80;43.00;;;;;;5115059;27;20039;-72
2022/03/15 01:47:43;;;;;;;2.78;1.10;;;15.80;43.00;;;;;;5133499;27;20177;-71
2022/03/15 01:50:10;;;;;;;2.65;1.10;;;15.80;43.00;;;;;;5133349;27;20509;-72
2022/03/15 01:52:35;;;;;;;2.55;1.35;;;15.80;43.00;;;;;;5133601;27;20128;-69
2022/03/15 01:55:08;;;;;;;1.92;1.02;;;15.70;42.90;;;;;;5114922;27;20043;-69
2022/03/15 01:57:33;;;;;;;2.50;1.13;;;15.60;43.00;;;;;;5114943;27;20038;-70
2022/03/15 01:59:59;;;;;;;2.35;1.20;;;15.60;43.30;;;;;;5114883;27;20126;-69
2022/03/15 02:02:25;;;;;;;1.73;1.35;;;15.60;43.30;;;;;;5114727;27;20043;-69
2022/03/15 02:04:50;;;;;;;2.58;1.35;;;15.80;43.30;;;;;;5102081;28;20047;-69
2022/03/15 02:07:16;;;;;;;3.47;0.93;;;16.00;42.90;;;;;;5094211;28;20666;-70
2022/03/15 02:09:42;;;;;;;3.83;1.23;;;16.50;42.30;;;;;;5094616;28;20039;-72
2022/03/15 02:12:13;;;;;;;3.50;0.95;;;16.90;41.50;;;;;;5094163;28;20101;-69
2022/03/15 02:14:39;;;;;;;2.70;1.02;;;17.40;40.70;;;;;;5112446;28;20513;-70
2022/03/15 02:17:05;;;;;;;1.55;0.73;;;17.80;40.00;;;;;;5094421;28;20078;-71
2022/03/15 02:19:30;;;;;;;1.33;0.80;;;18.20;40.10;;;;;;5094179;28;20532;-69
2022/03/15 02:21:57;;;;;;;2.63;1.00;;;18.60;38.70;;;;;;5094183;28;20039;-69
2022/03/15 02:24:23;;;;;;;1.33;0.80;;;18.90;38.00;;;;;;5094264;28;20047;-69
2022/03/15 02:26:51;;;;;;;2.33;0.80;;;19.30;37.40;;;;;;5093698;28;20047;-70
2022/03/15 02:29:20;;;;;;;1.10;0.65;;;19.60;36.80;;;;;;5112597;28;20040;-69
2022/03/15 02:31:46;;;;;;;2.42;0.68;;;19.90;36.40;;;;;;5112158;28;20387;-70
2022/03/15 02:34:12;;;;;;;2.72;0.70;;;20.10;35.80;;;;;;5111844;28;20044;-70
2022/03/15 02:36:38;;;;;;;2.22;0.80;;;20.30;35.40;;;;;;5111143;28;20058;-69
2022/03/15 02:39:03;;;;;;;1.75;0.63;;;20.50;35.00;;;;;;5093791;28;20062;-72
2022/03/15 02:41:29;;;;;;;2.97;0.90;;;20.70;34.70;;;;;;5093726;28;20039;-71
2022/03/15 02:43:56;;;;;;;2.63;0.70;;;20.80;34.40;;;;;;5093922;28;20039;-70
2022/03/15 02:46:31;;;;;;;1.77;0.88;;;21.00;34.20;;;;;;5112216;28;20039;-69
2022/03/15 02:49:00;;;;;;;2.47;0.60;;;21.10;33.90;;;;;;5094121;28;20046;-70
2022/03/15 02:51:26;;;;;;;2.03;0.80;;;21.20;33.70;;;;;;5093771;28;20487;-69
2022/03/15 02:53:54;;;;;;;2.67;0.70;;;21.20;33.60;;;;;;5093780;28;20055;-70
2022/03/15 02:56:21;;;;;;;2.08;0.80;;;21.20;33.50;;;;;;5093786;28;20093;-70
2022/03/15 02:58:46;;;;;;;2.33;0.75;;;21.20;33.40;;;;;;5093277;28;20043;-69
2022/03/15 03:01:15;;;;;;;1.50;0.73;;;21.20;33.40;;;;;;5093693;28;20035;-69
2022/03/15 03:03:48;;;;;;;1.77;0.60;;;21.10;33.30;;;;;;5093900;28;20032;-70
2022/03/15 03:06:13;;;;;;;3.13;0.60;;;21.20;33.40;;;;;;5112014;28;20040;-70
2022/03/15 03:08:40;;;;;;;3.17;0.70;;;21.00;33.30;;;;;;5112190;28;20368;-69
2022/03/15 03:11:05;;;;;;;1.13;0.65;;;21.00;33.40;;;;;;5111840;28;20047;-70
2022/03/15 03:13:31;;;;;;;2.35;0.65;;;21.00;33.50;;;;;;5093533;28;20044;-70
2022/03/15 03:15:59;;;;;;;1.35;0.57;;;20.90;33.50;;;;;;5093877;28;20036;-70
2022/03/15 03:18:32;;;;;;;3.65;0.80;;;20.80;33.50;;;;;;5093778;28;20043;-70
2022/03/15 03:20:58;;;;;;;2.45;0.85;;;20.80;33.60;;;;;;5111998;28;20031;-69
2022/03/15 03:23:24;;;;;;;2.67;0.85;;;20.80;33.50;;;;;;5093746;28;20047;-70
2022/03/15 03:25:50;;;;;;;1.85;0.93;;;20.80;33.50;;;;;;5093601;28;20059;-70
2022/03/15 03:28:17;;;;;;;1.67;0.80;;;20.80;33.50;;;;;;5093615;28;20043;-70
2022/03/15 03:30:47;;;;;;;1.45;0.70;;;20.80;33.30;;;;;;5093557;28;20123;-69
2022/03/15 03:33:15;;;;;;;2.63;0.60;;;20.90;33.30;;;;;;5093228;28;20173;-73
2022/03/15 03:35:40;;;;;;;1.23;0.68;;;20.90;33.20;;;;;;5111723;28;20047;-69
2022/03/15 03:38:06;;;;;;;1.85;0.73;;;21.00;33.10;;;;;;5093379;28;20036;-70
2022/03/15 03:40:33;;;;;;;2.15;0.68;;;21.00;33.00;;;;;;5096089;28;20051;-70
2022/03/15 03:42:59;;;;;;;2.78;0.80;;;21.00;33.00;;;;;;5097347;28;20044;-71
2022/03/15 03:45:27;;;;;;;1.88;0.60;;;21.10;32.90;;;;;;5097191;28;20054;-70
2022/03/15 03:47:53;;;;;;;1.65;0.80;;;21.00;32.80;;;;;;5097112;28;20046;-70
2022/03/15 03:50:19;;;;;;;3.58;0.85;;;21.10;32.80;;;;;;5115343;28;20031;-70
2022/03/15 03:52:45;;;;;;;1.08;0.88;;;21.20;32.70;;;;;;5096825;28;20041;-70
2022/03/15 03:55:11;;;;;;;1.70;0.60;;;21.30;32.60;;;;;;5096373;28;20040;-70
2022/03/15 03:57:37;;;;;;;2.97;0.85;;;21.30;32.50;;;;;;5114973;28;20063;-70
2022/03/15 04:00:06;;;;;;;1.80;1.00;;;21.30;32.40;;;;;;5096764;28;20520;-70
2022/03/15 04:02:32;;;;;;;1.25;0.75;;;21.40;32.40;;;;;;5096968;28;20050;-70
2022/03/15 04:04:58;;;;;;;3.92;0.90;;;21.40;32.40;;;;;;5096628;28;20399;-70
2022/03/15 04:07:24;;;;;;;1.75;0.60;;;21.40;32.30;;;;;;5114948;28;20084;-72
2022/03/15 04:09:49;;;;;;;2.33;0.90;;;21.40;32.20;;;;;;5096361;28;20107;-70
2022/03/15 04:12:19;;;;;;;2.20;0.95;;;21.40;32.20;;;;;;5096389;28;20039;-69
2022/03/15 04:14:46;;;;;;;2.33;0.90;;;21.40;32.20;;;;;;5114995;28;20040;-73
2022/03/15 04:17:13;;;;;;;2.08;1.00;;;21.40;32.30;;;;;;5114870;28;20074;-70
2022/03/15 04:19:38;;;;;;;1.83;0.85;;;21.30;32.20;;;;;;5096772;28;20028;-69
2022/03/15 04:22:04;;;;;;;2.17;0.98;;;21.30;32.40;;;;;;5114527;28;20483;-70
2022/03/15 04:24:31;;;;;;;2.20;1.20;;;21.30;32.40;;;;;;5079721;28;20126;-71
2022/03/15 04:26:59;;;;;;;1.20;1.00;;;21.20;32.40;;;;;;5096483;28;20047;-71
2022/03/15 04:29:26;;;;;;;2.38;1.10;;;21.20;32.50;;;;;;5096524;28;20105;-72
2022/03/15 04:31:52;;;;;;;2.13;0.80;;;21.10;32.50;;;;;;5096209;28;20114;-71
2022/03/15 04:34:17;;;;;;;2.13;0.75;;;21.10;32.50;;;;;;5114222;28;20160;-72
2022/03/15 04:36:45;;;;;;;1.98;1.20;;;21.10;32.60;;;;;;5114224;28;20513;-70
2022/03/15 04:39:12;;;;;;;2.10;0.88;;;21.10;32.60;;;;;;5114130;28;20425;-70
2022/03/15 04:41:38;;;;;;;2.08;1.05;;;21.00;32.50;;;;;;5095711;28;20043;-71
2022/03/15 04:44:05;;;;;;;1.45;0.82;;;21.00;32.60;;;;;;5095849;28;20054;-70
2022/03/15 04:46:32;;;;;;;1.90;1.00;;;21.00;32.60;;;;;;5095175;28;20426;-70
2022/03/15 04:48:58;;;;;;;1.90;0.90;;;21.00;32.60;;;;;;5114224;28;20478;-70
2022/03/15 04:51:24;;;;;;;2.33;1.13;;;21.00;32.60;;;;;;5113851;28;20043;-70
2022/03/15 04:53:51;;;;;;;1.77;0.77;;;21.00;32.50;;;;;;5095591;28;20042;-70
2022/03/15 04:56:20;;;;;;;1.67;1.00;;;21.00;32.50;;;;;;5095895;28;20391;-73
2022/03/15 04:58:46;;;;;;;2.28;0.93;;;21.00;32.50;;;;;;5095881;28;20050;-70
2022/03/15 05:01:12;;;;;;;3.83;1.00;;;21.00;32.50;;;;;;5095702;28;20048;-73
2022/03/15 05:03:38;;;;;;;2.78;1.17;;;21.00;32.40;;;;;;5095483;28;20064;-70
2022/03/15 05:06:04;;;;;;;1.80;0.90;;;21.10;32.40;;;;;;5095481;28;20122;-70
2022/03/15 05:08:30;;;;;;;1.48;0.88;;;21.10;32.40;;;;;;5095475;28;20043;-70
2022/03/15 05:11:11;;;;;;;2.25;1.02;;;21.10;32.30;;;;;;5095613;28;20092;-70
2022/03/15 05:13:45;;;;;;;2.33;0.80;;;21.20;32.30;;;;;;5095116;28;20467;-70
2022/03/15 05:16:15;;;;;;;2.05;0.85;;;21.20;32.30;;;;;;5095284;28;20043;-70
2022/03/15 05:18:45;;;;;;;2.40;1.00;;;21.20;32.20;;;;;;5113445;28;20046;-70
2022/03/15 05:21:16;;;;;;;;;;;21.30;32.20;;;;;;5095889;28;20040;-70
2022/03/15 05:23:43;;;;;;;2.00;0.98;;;21.30;32.30;;;;;;5095334;28;19915;-69
2022/03/15 05:26:10;;;;;;;1.63;1.10;;;21.30;32.10;;;;;;5113692;28;20035;-74
2022/03/15 05:28:36;;;;;;;1.88;0.90;;;21.30;32.10;;;;;;5094978;28;20104;-73
2022/03/15 05:31:02;;;;;;;3.47;1.08;;;21.40;32.10;;;;;;5113304;28;20048;-73
2022/03/15 05:33:28;;;;;;;2.28;1.08;;;21.40;32.00;;;;;;5094579;28;20124;-74
2022/03/15 05:35:54;;;;;;;2.13;0.90;;;21.40;32.10;;;;;;5113273;28;20046;-71
2022/03/15 05:38:20;;;;;;;2.58;1.05;;;21.40;32.00;;;;;;5113361;28;20395;-72
2022/03/15 05:40:52;;;;;;;2.58;1.38;;;21.40;32.00;;;;;;5094817;28;20031;-73
2022/03/15 05:43:19;;;;;;;1.52;1.30;;;21.40;32.10;;;;;;5113131;28;20074;-73
2022/03/15 05:45:45;;;;;;;2.63;1.13;;;21.40;32.10;;;;;;5113015;28;20039;-73
2022/03/15 05:48:11;;;;;;;2.00;1.05;;;21.30;32.10;;;;;;5094678;28;20077;-71
2022/03/15 05:50:37;;;;;;;2.50;1.20;;;21.30;32.10;;;;;;5094745;28;20027;-72
2022/03/15 05:53:05;;;;;;;2.13;1.00;;;21.30;33.00;;;;;;5094603;28;20039;-73
2022/03/15 05:55:32;;;;;;;1.73;1.05;;;21.40;32.40;;;;;;5094470;28;20046;-72
2022/03/15 05:57:58;;;;;;;1.52;1.00;;;21.20;32.30;;;;;;5112788;28;20035;-73
2022/03/15 06:00:24;;;;;;;3.58;1.02;;;21.20;32.40;;;;;;5094556;28;20126;-72
2022/03/15 06:02:50;;;;;;;2.38;1.00;;;21.20;32.40;;;;;;5112260;28;20131;-73
2022/03/15 06:05:16;;;;;;;1.98;1.38;;;21.20;32.50;;;;;;5094569;28;20031;-71
2022/03/15 06:07:50;;;;;;;3.90;1.30;;;21.10;32.50;;;;;;5093994;28;20436;-71
2022/03/15 06:10:18;;;;;;;2.10;1.38;;;21.10;32.50;;;;;;5094484;28;20047;-72
2022/03/15 06:12:44;;;;;;;2.40;1.80;;;21.10;32.60;;;;;;5094115;28;20048;-73
2022/03/15 06:15:10;;;;;;;3.40;1.50;;;21.10;32.70;;;;;;5112520;28;20118;-73
2022/03/15 06:18:01;;;;;;;2.20;1.33;;;21.10;33.20;;;;;;5074460;28;20040;-74
2022/03/15 06:20:27;;;;;;;;;;;21.00;33.80;;;;;;5090081;28;20035;-74
2022/03/15 06:22:56;;;;;;;3.15;1.35;;;20.90;33.90;;;;;;5094313;28;19985;-74
2022/03/15 06:25:22;;;;;;;2.83;1.73;;;20.90;34.30;;;;;;5102895;28;20028;-78
2022/03/15 06:27:49;;;;;;;3.67;2.03;;;20.80;34.70;;;;;;5094225;28;20036;-77
2022/03/15 06:30:16;;;;;;;2.55;1.52;;;20.80;35.00;;;;;;5082644;28;20036;-78
2022/03/15 06:32:43;;;;;;;2.53;1.20;;;20.80;35.10;;;;;;5089808;28;20066;-75
2022/03/15 06:35:10;;;;;;;3.22;1.90;;;20.70;35.10;;;;;;5103907;28;20094;-78
2022/03/15 06:37:39;;;;;;;3.85;2.10;;;20.80;35.30;;;;;;5101130;28;20040;-77
2022/03/15 06:40:07;;;;;;;4.40;1.98;;;20.80;35.40;;;;;;5102204;28;20031;-75
2022/03/15 06:42:33;;;;;;;2.63;1.50;;;20.70;35.50;;;;;;5097650;28;20075;-72
2022/03/15 06:44:58;;;;;;;2.47;1.75;;;20.70;35.50;;;;;;5101062;28;20488;-71
2022/03/15 06:47:30;;;;;;;3.28;1.75;;;20.80;35.50;;;;;;5091393;28;20058;-67
2022/03/15 06:49:55;;;;;;;2.22;1.73;;;20.80;35.60;;;;;;5090019;28;20048;-66
2022/03/15 06:52:21;;;;;;;17.65;3.33;;;20.80;35.60;;;;;;5094816;28;20044;-67
2022/03/15 06:54:47;;;;;;;8.07;4.72;;;20.80;35.70;;;;;;5100856;28;20040;-62
2022/03/15 06:57:14;;;;;;;7.35;6.65;;;20.70;35.90;;;;;;5098846;28;20562;-65
2022/03/15 06:59:40;;;;;;;8.43;7.63;;;20.70;36.00;;;;;;5109304;28;20039;-61
2022/03/15 07:02:06;;;;;;;10.80;8.65;;;20.70;36.00;;;;;;5086428;28;20103;-63
2022/03/15 07:04:31;;;;;;;9.90;8.40;;;20.70;36.10;;;;;;5103379;28;20538;-62
2022/03/15 07:06:57;;;;;;;10.13;8.93;;;20.70;36.10;;;;;;5088309;28;20050;-65
2022/03/15 07:09:23;;;;;;;10.73;9.63;;;20.70;36.10;;;;;;5088005;28;20058;-61
2022/03/15 07:11:49;;;;;;;11.57;9.25;;;20.70;36.00;;;;;;5094891;28;20484;-66
2022/03/15 07:14:15;;;;;;;10.45;9.30;;;20.80;36.10;;;;;;5106027;28;20046;-63
2022/03/15 07:16:43;;;;;;;10.73;7.85;;;20.90;36.00;;;;;;5108655;28;20517;-62
2022/03/15 07:19:09;;;;;;;9.02;6.97;;;21.00;36.70;;;;;;5111185;28;20667;-68
2022/03/15 07:21:38;;;;;;;9.48;5.68;;;21.10;35.90;;;;;;5094386;28;20063;-63
2022/03/15 07:24:06;;;;;;;8.73;4.65;;;21.20;36.00;;;;;;5103256;28;20394;-65
2022/03/15 07:26:35;;;;;;;5.97;4.35;;;21.40;36.00;;;;;;5103040;28;20475;-65
2022/03/15 07:29:02;;;;;;;5.05;3.65;;;21.60;35.80;;;;;;5097458;28;20038;-66
2022/03/15 07:31:28;;;;;;;5.15;3.28;;;21.70;35.80;;;;;;5059724;28;20039;-63
2022/03/15 07:33:54;;;;;;;6.15;3.35;;;21.80;35.80;;;;;;5086713;28;20238;-65
2022/03/15 07:36:21;;;;;;;4.85;3.83;;;21.90;35.80;;;;;;5082306;28;20273;-64
2022/03/15 07:38:48;;;;;;;5.10;3.85;;;21.90;36.00;;;;;;5058051;28;20640;-64
2022/03/15 07:41:13;;;;;;;6.88;5.07;;;21.90;36.00;;;;;;5062706;28;20054;-65
2022/03/15 07:43:39;;;;;;;11.00;4.78;;;21.80;36.00;;;;;;5059274;28;20527;-68
2022/03/15 07:46:05;;;;;;;7.85;6.13;;;21.70;36.40;;;;;;5066538;28;20035;-63
2022/03/15 07:48:31;;;;;;;8.38;5.68;;;21.70;36.80;;;;;;5089536;28;20443;-63
2022/03/15 07:50:59;;;;;;;12.32;6.15;;;21.60;37.10;;;;;;5066244;28;20048;-63
2022/03/15 07:53:25;;;;;;;8.80;4.55;;;21.50;37.20;;;;;;5082797;28;20043;-67
2022/03/15 07:55:50;;;;;;;4.80;3.60;;;21.40;37.60;;;;;;5060040;28;20036;-63
2022/03/15 07:58:16;;;;;;;9.50;4.38;;;21.50;38.10;;;;;;5060033;28;20748;-70
2022/03/15 08:00:42;;;;;;;7.32;3.38;;;21.60;38.20;;;;;;5069996;28;20094;-70
2022/03/15 08:03:07;;;;;;;5.53;2.97;;;21.90;37.90;;;;;;5076292;28;20698;-68
2022/03/15 08:05:33;;;;;;;3.45;2.50;;;22.20;37.40;;;;;;5086015;28;20032;-62
2022/03/15 08:07:59;;;;;;;3.70;2.50;;;22.60;36.90;;;;;;5081639;28;20678;-70
2022/03/15 08:10:24;;;;;;;8.52;3.15;;;22.90;36.60;;;;;;5061504;28;20101;-64
2022/03/15 08:12:50;;;;;;;5.22;2.22;;;23.10;36.20;;;;;;5081099;28;20043;-68
2022/03/15 08:15:15;;;;;;;5.07;2.75;;;23.30;36.00;;;;;;5083103;28;20609;-62
2022/03/15 08:17:41;;;;;;;9.43;2.97;;;23.40;35.70;;;;;;5081232;28;20040;-62
2022/03/15 08:20:09;;;;;;;10.77;2.55;;;23.40;35.70;;;;;;5067823;28;20055;-67
2022/03/15 08:22:35;;;;;;;6.78;2.65;;;23.50;35.70;;;;;;5065498;28;20772;-79
2022/03/15 08:25:02;;;;;;;8.32;2.60;;;23.40;35.80;;;;;;5053700;28;20044;-77
2022/03/15 08:27:31;;;;;;;7.45;2.63;;;23.40;36.30;;;;;;5083153;28;20118;-72
2022/03/15 08:29:57;;;;;;;8.45;2.35;;;23.30;36.40;;;;;;5064930;28;20074;-72
2022/03/15 08:32:23;;;;;;;10.50;2.75;;;23.30;36.60;;;;;;5098265;27;20609;-76
2022/03/15 08:34:48;;;;;;;8.40;2.53;;;23.20;36.60;;;;;;5106055;27;20126;-76
2022/03/15 08:37:14;;;;;;;8.85;2.45;;;23.10;36.60;;;;;;5083002;27;20123;-74
2022/03/15 08:39:40;;;;;;;3.47;2.22;;;23.00;36.60;;;;;;5103338;27;20023;-74
2022/03/15 08:42:05;;;;;;;7.57;2.13;;;22.90;36.70;;;;;;5104224;27;20085;-74
2022/03/15 08:44:34;;;;;;;12.93;2.00;;;22.90;36.70;;;;;;5084223;28;20609;-76
2022/03/15 08:47:03;;;;;;;10.27;2.30;;;22.80;36.70;;;;;;5097291;27;20122;-76
2022/03/15 08:49:28;;;;;;;3.83;1.77;;;22.70;36.50;;;;;;5088634;28;20036;-75
2022/03/15 08:51:57;;;;;;;5.75;2.08;;;22.70;36.40;;;;;;5078188;28;20430;-77
2022/03/15 08:54:26;;;;;;;3.60;1.90;;;22.70;36.40;;;;;;5070969;28;20066;-75
2022/03/15 08:56:52;;;;;;;5.47;1.85;;;22.70;36.40;;;;;;5074830;28;20040;-76
2022/03/15 08:59:20;;;;;;;4.35;1.60;;;22.70;36.30;;;;;;5095624;27;20035;-75
2022/03/15 09:01:46;;;;;;;6.65;1.73;;;22.70;36.20;;;;;;5098044;27;20036;-73
2022/03/15 09:04:12;;;;;;;6.53;1.60;;;22.70;36.00;;;;;;5075215;27;20610;-77
2022/03/15 09:06:38;;;;;;;5.70;1.55;;;22.80;35.80;;;;;;5077282;28;20118;-76
2022/03/15 09:09:04;;;;;;;5.15;1.65;;;22.90;35.70;;;;;;5096714;27;20041;-79
2022/03/15 09:11:33;;;;;;;3.72;1.67;;;22.90;35.70;;;;;;5096422;27;20063;-75
2022/03/15 09:13:59;;;;;;;4.65;2.00;;;23.00;35.60;;;;;;5075686;28;20045;-75
2022/03/15 09:16:25;;;;;;;3.42;1.50;;;23.00;35.40;;;;;;5093592;27;20040;-76
2022/03/15 09:18:51;;;;;;;4.82;1.42;;;23.10;35.20;;;;;;5094327;27;20063;-74
2022/03/15 09:21:18;;;;;;;3.08;1.58;;;23.20;35.10;;;;;;5078100;28;20079;-75
2022/03/15 09:23:44;;;;;;;5.88;1.58;;;23.30;35.00;;;;;;5059432;28;20674;-75
2022/03/15 09:26:10;;;;;;;5.25;2.95;;;23.30;34.90;;;;;;5088677;28;20109;-72
2022/03/15 09:28:37;;;;;;;6.30;3.75;;;23.30;34.90;;;;;;5101016;27;20043;-75
2022/03/15 09:31:03;;;;;;;5.22;4.55;;;23.30;35.00;;;;;;5074229;27;20047;-76
2022/03/15 09:33:29;;;;;;;7.30;4.15;;;23.30;35.10;;;;;;5071368;28;20050;-80
2022/03/15 09:35:55;;;;;;;14.20;12.27;;;23.30;35.30;;;;;;5053654;28;20044;-82
2022/03/15 09:38:21;;;;;;;12.77;10.57;;;23.30;35.80;;;;;;5056207;28;20155;-80
2022/03/15 09:40:51;;;;;;;16.30;10.43;;;23.20;36.00;;;;;;5058938;28;20044;-78
2022/03/15 09:43:22;;;;;;;13.02;9.85;;;23.10;36.20;;;;;;5063328;28;20174;-80
2022/03/15 09:45:50;;;;;;;11.27;8.80;;;23.00;36.40;;;;;;5082474;28;20036;-82
2022/03/15 09:48:19;;;;;;;8.00;6.45;;;22.90;36.80;;;;;;5054119;28;20044;-77
2022/03/15 09:50:50;;;;;;;8.67;5.57;;;22.80;37.00;;;;;;5053299;28;20483;-74
2022/03/15 09:53:17;;;;;;;8.40;4.57;;;22.80;37.10;;;;;;5055516;28;20055;-76
2022/03/15 09:55:45;;;;;;;10.52;4.72;;;22.80;36.90;;;;;;5052937;28;20039;-78
2022/03/15 09:58:18;;;;;;;11.75;5.13;;;23.00;36.80;;;;;;5057084;28;20050;-74
2022/03/15 10:00:43;;;;;;;6.43;3.90;;;23.00;36.80;;;;;;5054921;28;20050;-72
2022/03/15 10:03:10;;;;;;;8.55;3.97;;;23.00;36.90;;;;;;5080257;28;20043;-73
2022/03/15 10:05:36;;;;;;;6.55;3.25;;;23.10;37.20;;;;;;5060909;28;20862;-72
2022/03/15 10:08:05;;;;;;;4.03;2.90;;;23.20;37.30;;;;;;5081416;28;20035;-77
2022/03/15 10:10:32;;;;;;;8.98;3.25;;;23.20;37.20;;;;;;5086630;28;20642;-73
2022/03/15 10:12:58;;;;;;;8.27;2.60;;;23.30;36.90;;;;;;5055717;28;20044;-72
2022/03/15 10:15:25;;;;;;;9.35;2.70;;;23.30;36.60;;;;;;5049300;28;20094;-75
2022/03/15 10:17:55;;;;;;;7.90;2.70;;;23.40;36.40;;;;;;5076398;28;20031;-73
2022/03/15 10:20:28;;;;;;;8.00;2.10;;;23.40;36.30;;;;;;5076730;28;20475;-73
2022/03/15 10:22:57;;;;;;;5.18;2.65;;;23.40;36.30;;;;;;5056977;28;20609;-75
2022/03/15 10:25:27;;;;;;;7.43;2.55;;;23.40;36.20;;;;;;5066206;28;20051;-74
2022/03/15 10:27:56;;;;;;;6.65;2.55;;;23.40;36.10;;;;;;5083088;28;20036;-74
2022/03/15 10:30:23;;;;;;;4.45;2.33;;;23.40;36.20;;;;;;5080979;28;20040;-73
2022/03/15 10:32:50;;;;;;;7.38;2.90;;;23.40;36.40;;;;;;5080505;27;20062;-73
2022/03/15 10:35:19;;;;;;;5.95;2.22;;;23.30;36.40;;;;;;5059914;27;20609;-74
2022/03/15 10:37:44;;;;;;;7.63;2.33;;;23.20;36.70;;;;;;5120518;27;20441;-75
2022/03/15 10:40:11;;;;;;;5.88;2.30;;;23.20;37.30;;;;;;5095928;27;20036;-75
2022/03/15 10:42:42;;;;;;;4.45;2.17;;;23.10;37.50;;;;;;5095425;27;20046;-74
2022/03/15 10:45:15;;;;;;;6.70;2.80;;;23.00;37.60;;;;;;5100859;27;20769;-75
2022/03/15 10:47:50;;;;;;;8.73;3.30;;;23.00;38.00;;;;;;5103224;27;20035;-75
2022/03/15 10:50:17;;;;;;;9.02;3.88;;;22.90;38.20;;;;;;5101075;27;20186;-77
2022/03/15 10:52:44;;;;;;;9.75;4.03;;;22.90;38.40;;;;;;5129330;27;20031;-76
2022/03/15 10:55:17;;;;;;;6.65;2.97;;;22.80;38.40;;;;;;5109025;27;20124;-78
2022/03/15 10:57:46;;;;;;;8.77;3.40;;;22.80;38.50;;;;;;5113041;27;20035;-77
2022/03/15 11:00:14;;;;;;;7.75;3.00;;;22.80;38.50;;;;;;5131087;27;20042;-78
2022/03/15 11:02:42;;;;;;;10.75;3.03;;;22.80;38.50;;;;;;5108780;27;20047;-77
2022/03/15 11:05:08;;;;;;;4.40;2.42;;;22.90;38.70;;;;;;5108129;27;20035;-75
2022/03/15 11:07:39;;;;;;;10.45;2.65;;;23.00;38.90;;;;;;5098901;27;20043;-77
2022/03/15 11:10:10;;;;;;;8.85;2.70;;;23.00;38.80;;;;;;5130421;27;20401;-77
2022/03/15 11:12:36;;;;;;;7.88;2.58;;;23.10;38.80;;;;;;5131971;27;20046;-78
2022/03/15 11:15:02;;;;;;;10.05;2.45;;;23.10;38.70;;;;;;5115099;27;20714;-74
2022/03/15 11:17:27;;;;;;;5.95;2.13;;;23.10;39.60;;;;;;5114178;27;20035;-74
2022/03/15 11:19:55;;;;;;;11.20;2.25;;;23.20;39.10;;;;;;5109432;27;20433;-71
2022/03/15 11:22:23;;;;;;;7.25;2.08;;;23.30;38.90;;;;;;5133779;27;20034;-76
2022/03/15 11:25:14;;;;;;;8.45;2.17;;;23.40;38.80;;;;;;5135753;27;20038;-77
2022/03/15 11:27:43;;;;;;;5.53;2.15;;;23.50;38.50;;;;;;5109598;27;20035;-73
2022/03/15 11:30:11;;;;;;;7.35;2.20;;;23.50;38.20;;;;;;5114698;27;20089;-79
2022/03/15 11:32:38;;;;;;;7.38;1.85;;;23.50;37.90;;;;;;5110858;27;20538;-78
2022/03/15 11:35:07;;;;;;;9.40;2.20;;;23.50;37.80;;;;;;5107419;27;20047;-78
2022/03/15 11:37:35;;;;;;;6.25;2.67;;;23.60;37.80;;;;;;5098724;27;20047;-76
2022/03/15 11:40:04;;;;;;;7.82;2.13;;;23.50;37.70;;;;;;5128601;27;20027;-73
2022/03/15 11:42:32;;;;;;;7.35;2.33;;;23.40;37.60;;;;;;5104683;27;20103;-76
2022/03/15 11:53:15;;;;;;;7.13;3.83;;;23.30;38.00;;;;;;5125592;27;1159309;-73
2022/03/15 11:58:24;;;;;;;7.38;3.97;;;23.10;38.40;;;;;;5071116;27;20425;-76
2022/03/15 12:00:51;;;;;;;9.93;2.85;;;22.90;38.60;;;;;;5060288;28;20052;-76
2022/03/15 12:03:24;;;;;;;7.28;3.20;;;22.90;38.80;;;;;;5088361;28;20048;-79
2022/03/15 12:05:53;;;;;;;10.98;2.85;;;22.90;38.90;;;;;;5058328;28;20096;-70
2022/03/15 12:13:43;;;;;;;5.75;2.58;;;23.00;38.90;;;;;;5087918;27;20343;-71
2022/03/15 12:19:15;;;;;;;6.82;2.78;;;23.20;38.90;;;;;;5045587;27;21052;-72
2022/03/15 12:21:48;;;;;;;5.28;1.98;;;23.30;38.60;;;;;;5046321;28;20552;-70
2022/03/15 12:24:19;;;;;;;7.45;2.20;;;23.30;38.40;;;;;;5041267;28;20120;-71
2022/03/15 12:26:58;;;;;;;8.15;1.67;;;23.40;38.30;;;;;;5039501;28;20714;-72
2022/03/15 12:29:27;;;;;;;3.28;1.90;;;23.50;38.20;;;;;;5075396;28;20119;-71
2022/03/15 12:31:53;;;;;;;6.05;1.88;;;23.40;38.00;;;;;;5078139;28;20106;-71
2022/03/15 12:34:19;;;;;;;5.15;1.98;;;23.50;37.90;;;;;;5075034;28;20033;-71
2022/03/15 12:39:34;;;;;;;6.20;2.22;;;23.40;37.60;;;;;;5063094;27;20436;-72
2022/03/15 12:42:16;;;;;;;5.07;1.55;;;23.40;37.50;;;;;;5055300;28;20118;-73
2022/03/15 12:47:27;;;;;;;7.13;1.70;;;23.40;38.20;;;;;;5056224;27;20470;-70
2022/03/15 12:53:07;;;;;;;5.00;2.03;;;23.30;37.40;;;;;;5121817;27;1162105;-73
2022/03/15 12:55:41;;;;;;;4.22;2.03;;;23.30;37.50;;;;;;5110936;27;20039;-74
2022/03/15 12:58:12;;;;;;;6.00;1.70;;;23.20;37.50;;;;;;5118734;27;20169;-73
2022/03/15 13:00:40;;;;;;;5.32;1.90;;;23.20;37.70;;;;;;5123691;27;20828;-72
2022/03/15 13:03:08;;;;;;;3.17;1.73;;;23.20;37.70;;;;;;5116804;27;20050;-72
2022/03/15 13:05:37;;;;;;;4.97;2.00;;;23.20;37.70;;;;;;5140865;27;20030;-72
2022/03/15 13:08:04;;;;;;;5.37;1.50;;;23.20;37.70;;;;;;5126978;27;20046;-72
2022/03/15 13:10:42;;;;;;;5.72;1.92;;;23.20;37.80;;;;;;5122537;27;20500;-71
2022/03/15 13:18:43;;;;;;;4.10;1.58;;;23.20;37.80;;;;;;5034283;28;20409;-73